Time;durP1;ratioP1;P1;durP2;ratioP2;P2;SDS_P1;SDS_P2;PMS_P1;PMS_P2;Temp;Humidity;BMP_temperature;BMP_pressure;BME280_temperature;BME280_humidity;BME280_pressure;Samples;Min_cycle;Max_cycle;Signal;HPM_P1;HPM_P2
2021/10/31 00:01:12;;;;;;;1.00;0.95;;;8.60;99.90;;;;;;5032852;28;20206;-84
2021/10/31 00:03:38;;;;;;;2.95;2.25;;;8.60;99.90;;;;;;5031017;28;21516;-83
2021/10/31 00:06:05;;;;;;;1.83;1.73;;;8.60;99.90;;;;;;5030139;28;20198;-85
2021/10/31 00:08:30;;;;;;;2.92;1.92;;;8.60;99.90;;;;;;5032791;28;23725;-83
2021/10/31 00:10:57;;;;;;;1.55;1.40;;;8.60;99.90;;;;;;5034930;28;20212;-83
2021/10/31 00:13:24;;;;;;;1.70;1.60;;;8.60;99.90;;;;;;5034534;28;20244;-84
2021/10/31 00:15:49;;;;;;;0.85;0.85;;;8.50;99.90;;;;;;5035215;28;20554;-85
2021/10/31 00:18:16;;;;;;;1.23;1.23;;;8.60;99.90;;;;;;5036046;28;20292;-84
2021/10/31 00:20:41;;;;;;;2.13;1.48;;;8.60;99.90;;;;;;5034811;28;20318;-83
2021/10/31 00:23:08;;;;;;;1.27;1.17;;;8.60;99.90;;;;;;5034813;28;20418;-83
2021/10/31 00:25:34;;;;;;;3.78;1.95;;;8.60;99.90;;;;;;5034360;28;20669;-83
2021/10/31 00:28:00;;;;;;;1.95;1.73;;;8.60;99.90;;;;;;5034779;28;20201;-84
2021/10/31 00:30:26;;;;;;;0.80;0.80;;;8.50;99.90;;;;;;5034265;28;20205;-84
2021/10/31 00:32:51;;;;;;;1.83;1.55;;;8.50;99.90;;;;;;5034817;28;20273;-84
2021/10/31 00:35:17;;;;;;;1.50;1.20;;;8.50;99.90;;;;;;5036049;28;20706;-83
2021/10/31 00:37:43;;;;;;;1.25;1.15;;;8.50;99.90;;;;;;5034516;28;20200;-84
2021/10/31 00:40:10;;;;;;;1.25;1.10;;;8.50;99.90;;;;;;5034567;28;20206;-83
2021/10/31 00:42:35;;;;;;;1.10;1.10;;;8.40;99.90;;;;;;5034312;28;20198;-83
2021/10/31 00:45:01;;;;;;;1.10;1.10;;;8.50;99.90;;;;;;5034157;28;20201;-83
2021/10/31 00:47:27;;;;;;;1.63;1.52;;;8.40;99.90;;;;;;5033934;28;20568;-83
2021/10/31 00:49:52;;;;;;;3.63;1.95;;;8.40;99.90;;;;;;5035793;28;20208;-84
2021/10/31 00:52:18;;;;;;;1.85;1.75;;;8.40;99.90;;;;;;5035562;28;20205;-85
2021/10/31 00:54:44;;;;;;;4.57;1.90;;;8.30;99.90;;;;;;5033562;28;20229;-83
2021/10/31 00:57:11;;;;;;;1.20;1.13;;;8.30;99.90;;;;;;5033850;28;20236;-83
2021/10/31 00:59:37;;;;;;;1.50;1.40;;;8.30;99.90;;;;;;5033775;28;20540;-83
2021/10/31 01:02:09;;;;;;;4.45;2.00;;;8.30;99.90;;;;;;5034907;28;20612;-83
2021/10/31 01:04:35;;;;;;;1.33;1.23;;;8.30;99.90;;;;;;5050449;28;20538;-83
2021/10/31 01:07:10;;;;;;;1.30;1.20;;;8.30;99.90;;;;;;5049521;28;20197;-84
2021/10/31 01:09:54;;;;;;;1.15;1.13;;;8.30;99.90;;;;;;5031937;28;20201;-83
2021/10/31 01:12:57;;;;;;;1.33;1.23;;;8.30;99.90;;;;;;5033219;28;20626;-84
2021/10/31 01:15:47;;;;;;;1.42;1.33;;;8.20;99.90;;;;;;5019624;28;20278;-83
2021/10/31 01:18:25;;;;;;;2.35;1.27;;;8.20;99.90;;;;;;5051633;28;20197;-83
2021/10/31 01:21:25;;;;;;;1.25;1.20;;;8.10;99.90;;;;;;5033362;28;20574;-83
2021/10/31 01:24:05;;;;;;;1.42;1.35;;;8.10;99.90;;;;;;5033812;28;20680;-83
2021/10/31 01:26:56;;;;;;;3.03;2.25;;;8.00;99.90;;;;;;5032315;28;20206;-84
2021/10/31 01:29:48;;;;;;;1.38;1.20;;;8.00;99.90;;;;;;5039599;28;20189;-84
2021/10/31 01:32:34;;;;;;;1.38;1.27;;;8.00;99.90;;;;;;5058892;28;20692;-83
2021/10/31 01:35:19;;;;;;;1.63;1.35;;;8.00;99.90;;;;;;5053000;28;20264;-87
2021/10/31 01:38:05;;;;;;;1.00;1.00;;;7.90;99.90;;;;;;5076494;28;20205;-84
2021/10/31 01:40:54;;;;;;;3.65;1.45;;;8.00;99.90;;;;;;5056674;28;20202;-88
2021/10/31 01:43:44;;;;;;;1.92;1.63;;;8.00;99.90;;;;;;5042198;28;20197;-87
2021/10/31 01:46:33;;;;;;;1.50;1.40;;;8.00;99.90;;;;;;5057870;28;20240;-83
2021/10/31 01:49:10;;;;;;;1.42;1.33;;;8.00;99.90;;;;;;5009993;28;20221;-82
2021/10/31 01:51:46;;;;;;;1.17;1.15;;;7.90;99.90;;;;;;5049733;28;20280;-84
2021/10/31 01:54:19;;;;;;;1.77;1.65;;;7.90;99.90;;;;;;5075493;28;20267;-83
2021/10/31 01:56:50;;;;;;;1.65;1.55;;;7.90;99.90;;;;;;5058044;28;20193;-83
2021/10/31 01:59:22;;;;;;;1.45;1.35;;;7.80;99.90;;;;;;5054054;28;20205;-82
2021/10/31 02:01:50;;;;;;;2.22;2.05;;;7.80;99.90;;;;;;5039626;28;20614;-83
2021/10/31 02:04:18;;;;;;;1.00;1.00;;;7.90;99.90;;;;;;5036839;28;20197;-83
2021/10/31 02:06:50;;;;;;;1.00;1.00;;;7.80;99.90;;;;;;5033885;28;20201;-83
2021/10/31 02:09:19;;;;;;;1.50;1.40;;;7.80;99.90;;;;;;5050911;28;20248;-83
2021/10/31 02:11:46;;;;;;;0.60;0.60;;;7.80;99.90;;;;;;5047444;28;20281;-83
2021/10/31 02:14:13;;;;;;;1.45;1.35;;;7.70;99.90;;;;;;5039775;28;20723;-83
2021/10/31 02:16:40;;;;;;;3.42;2.25;;;7.70;99.90;;;;;;5036645;28;20695;-83
2021/10/31 02:19:13;;;;;;;2.15;1.70;;;7.70;99.90;;;;;;5036722;28;20673;-82
2021/10/31 02:21:40;;;;;;;1.83;1.73;;;7.70;99.90;;;;;;5048911;28;20277;-83
2021/10/31 02:24:08;;;;;;;1.55;1.45;;;7.70;99.90;;;;;;5048432;28;20205;-84
2021/10/31 02:26:37;;;;;;;1.10;1.10;;;7.70;99.90;;;;;;5047037;28;20680;-84
2021/10/31 02:29:07;;;;;;;1.50;1.38;;;7.80;99.90;;;;;;5038481;28;20688;-85
2021/10/31 02:31:34;;;;;;;1.17;1.17;;;7.80;99.90;;;;;;5053709;28;20205;-84
2021/10/31 02:34:01;;;;;;;1.83;1.73;;;7.80;99.90;;;;;;5057358;28;20201;-83
2021/10/31 02:36:27;;;;;;;2.20;1.60;;;7.80;99.90;;;;;;5053053;28;20194;-84
2021/10/31 02:38:52;;;;;;;2.40;2.20;;;7.80;99.90;;;;;;5037958;28;20201;-84
2021/10/31 02:41:18;;;;;;;0.90;0.90;;;7.80;99.90;;;;;;5045984;28;20209;-86
2021/10/31 02:43:44;;;;;;;2.20;2.03;;;7.80;99.90;;;;;;5059155;28;20256;-84
2021/10/31 02:46:10;;;;;;;1.63;1.52;;;7.90;99.90;;;;;;5041172;28;20262;-84
2021/10/31 02:48:38;;;;;;;3.67;2.53;;;7.90;99.90;;;;;;5040682;28;20224;-83
2021/10/31 02:51:36;;;;;;;1.13;1.13;;;7.90;99.90;;;;;;5033546;28;20236;-82
2021/10/31 02:54:28;;;;;;;2.15;1.00;;;7.90;99.90;;;;;;5038646;28;20270;-83
2021/10/31 02:57:14;;;;;;;1.85;1.75;;;7.90;99.90;;;;;;5037385;28;20208;-84
2021/10/31 02:59:43;;;;;;;0.75;0.75;;;7.90;99.90;;;;;;5054544;28;20208;-82
2021/10/31 03:02:10;;;;;;;2.67;1.50;;;7.90;99.90;;;;;;5034093;28;20299;-83
2021/10/31 03:04:37;;;;;;;1.00;1.00;;;7.90;99.90;;;;;;5037214;28;20206;-85
2021/10/31 03:07:04;;;;;;;1.00;1.00;;;7.90;99.90;;;;;;5030371;28;20665;-85
2021/10/31 03:09:30;;;;;;;1.40;1.30;;;7.90;99.90;;;;;;5035795;28;20206;-84
2021/10/31 03:12:05;;;;;;;1.10;1.10;;;7.90;99.90;;;;;;5035880;28;20368;-84
2021/10/31 03:14:30;;;;;;;2.50;1.98;;;7.90;99.90;;;;;;5035769;28;20723;-84
2021/10/31 03:16:56;;;;;;;2.70;2.15;;;7.90;99.90;;;;;;5035968;28;20288;-84
2021/10/31 03:19:23;;;;;;;2.42;1.98;;;7.80;99.90;;;;;;5053934;28;20561;-84
2021/10/31 03:21:49;;;;;;;0.90;0.90;;;7.90;99.90;;;;;;5030455;28;20212;-83
2021/10/31 03:24:14;;;;;;;1.70;1.60;;;7.80;99.90;;;;;;5036065;28;20205;-83
2021/10/31 03:26:41;;;;;;;1.80;1.70;;;7.80;99.90;;;;;;5018444;28;20728;-83
2021/10/31 03:29:07;;;;;;;1.55;1.45;;;7.90;99.90;;;;;;5036386;28;20229;-84
2021/10/31 03:31:32;;;;;;;1.10;1.10;;;7.90;99.90;;;;;;5034816;28;20791;-85
2021/10/31 03:33:58;;;;;;;11.35;2.13;;;7.90;99.90;;;;;;5036581;28;20237;-85
2021/10/31 03:36:24;;;;;;;1.23;1.13;;;7.90;99.90;;;;;;5029845;28;20240;-82
2021/10/31 03:38:50;;;;;;;1.05;1.05;;;7.90;99.90;;;;;;5035527;28;20561;-84
2021/10/31 03:41:15;;;;;;;0.80;0.80;;;7.90;99.90;;;;;;5036457;28;20215;-83
2021/10/31 03:43:41;;;;;;;1.35;1.17;;;7.90;99.90;;;;;;5053473;28;20205;-84
2021/10/31 03:46:07;;;;;;;0.70;0.70;;;7.90;99.90;;;;;;5039946;28;20205;-84
2021/10/31 03:48:33;;;;;;;1.52;1.30;;;7.80;99.90;;;;;;5036103;28;20209;-84
2021/10/31 03:50:59;;;;;;;1.13;1.13;;;7.80;99.90;;;;;;5051013;28;20251;-86
2021/10/31 03:53:25;;;;;;;6.47;2.55;;;7.80;99.90;;;;;;5030865;28;20684;-84
2021/10/31 03:55:51;;;;;;;1.52;1.45;;;7.80;99.90;;;;;;5036295;28;20205;-84
2021/10/31 03:58:17;;;;;;;1.40;1.30;;;7.80;99.90;;;;;;5036009;28;20197;-83
2021/10/31 04:00:43;;;;;;;3.20;2.03;;;7.80;99.90;;;;;;5035768;28;20206;-84
2021/10/31 04:03:10;;;;;;;4.30;2.42;;;7.80;99.90;;;;;;5034906;28;20201;-86
2021/10/31 04:05:35;;;;;;;0.82;0.82;;;7.80;99.90;;;;;;5034966;28;20580;-84
2021/10/31 04:08:01;;;;;;;1.58;1.48;;;7.80;99.90;;;;;;5027406;28;20206;-85
2021/10/31 04:10:27;;;;;;;1.45;1.35;;;7.70;99.90;;;;;;5034676;28;20248;-84
2021/10/31 04:12:53;;;;;;;2.10;1.98;;;7.70;99.90;;;;;;5034535;28;20227;-84
2021/10/31 04:15:20;;;;;;;1.58;1.48;;;7.70;99.90;;;;;;5034594;28;20284;-84
2021/10/31 04:17:46;;;;;;;1.63;1.45;;;7.70;99.90;;;;;;5034840;28;20300;-84
2021/10/31 04:20:12;;;;;;;2.17;1.77;;;7.70;99.90;;;;;;5034723;28;20289;-83
2021/10/31 04:22:38;;;;;;;4.88;1.92;;;7.70;99.90;;;;;;5028246;28;20223;-84
2021/10/31 04:25:04;;;;;;;2.38;1.75;;;7.70;99.90;;;;;;5034914;28;20635;-89
2021/10/31 04:27:30;;;;;;;3.58;1.55;;;7.70;99.90;;;;;;5033936;28;20207;-84
2021/10/31 04:29:56;;;;;;;2.92;2.30;;;7.70;99.90;;;;;;5035097;28;20727;-83
2021/10/31 04:32:23;;;;;;;1.67;1.58;;;7.70;99.90;;;;;;5031037;28;20201;-83
2021/10/31 04:34:49;;;;;;;1.67;1.58;;;7.70;99.90;;;;;;5032831;28;20209;-83
2021/10/31 04:37:14;;;;;;;3.47;3.17;;;7.70;99.90;;;;;;5026242;28;20562;-83
2021/10/31 04:39:42;;;;;;;1.45;1.35;;;7.70;99.90;;;;;;5030476;28;20583;-83
2021/10/31 04:42:10;;;;;;;1.38;1.13;;;7.70;99.90;;;;;;5035322;28;20202;-83
2021/10/31 04:44:36;;;;;;;1.13;1.13;;;7.60;99.90;;;;;;5035096;28;20262;-83
2021/10/31 04:47:03;;;;;;;0.98;0.90;;;7.70;99.90;;;;;;5035214;28;20661;-83
2021/10/31 04:49:29;;;;;;;0.70;0.70;;;7.60;99.90;;;;;;5051878;28;20719;-83
2021/10/31 04:51:56;;;;;;;1.52;1.42;;;7.70;99.90;;;;;;5028633;28;20205;-85
2021/10/31 04:54:22;;;;;;;0.80;0.80;;;7.70;99.90;;;;;;5050906;28;20274;-84
2021/10/31 04:56:48;;;;;;;3.00;2.15;;;7.60;99.90;;;;;;5034615;28;20206;-84
2021/10/31 04:59:15;;;;;;;1.05;1.05;;;7.60;99.90;;;;;;5033953;28;20205;-84
2021/10/31 05:01:41;;;;;;;1.27;1.17;;;7.60;99.90;;;;;;5034849;28;20229;-83
2021/10/31 05:04:07;;;;;;;1.70;1.60;;;7.60;99.90;;;;;;5034947;28;20704;-84
2021/10/31 05:06:33;;;;;;;2.42;2.25;;;7.60;99.90;;;;;;5033392;28;20213;-85
2021/10/31 05:08:58;;;;;;;2.47;2.10;;;7.60;99.90;;;;;;5028167;28;20201;-84
2021/10/31 05:11:24;;;;;;;1.73;1.63;;;7.60;99.90;;;;;;5033468;28;20528;-84
2021/10/31 05:13:50;;;;;;;2.53;2.25;;;7.60;99.90;;;;;;5051746;28;20220;-85
2021/10/31 05:16:16;;;;;;;1.40;1.30;;;7.60;99.90;;;;;;5034541;28;20206;-83
2021/10/31 05:18:41;;;;;;;4.03;2.50;;;7.60;99.90;;;;;;5034534;28;20194;-88
2021/10/31 05:21:07;;;;;;;1.48;1.33;;;7.60;99.90;;;;;;5033950;28;20251;-83
2021/10/31 05:23:34;;;;;;;1.85;1.50;;;7.60;99.90;;;;;;5027503;28;20205;-84
2021/10/31 05:26:00;;;;;;;2.17;1.98;;;7.60;99.90;;;;;;5033696;28;20288;-84
2021/10/31 05:28:26;;;;;;;2.95;2.53;;;7.60;99.90;;;;;;5051311;28;20318;-84
2021/10/31 05:30:53;;;;;;;3.22;2.17;;;7.60;99.90;;;;;;5034517;28;20614;-84
2021/10/31 05:33:20;;;;;;;1.73;1.63;;;7.60;99.90;;;;;;5033420;28;20258;-84
2021/10/31 05:35:46;;;;;;;2.28;1.52;;;7.60;99.90;;;;;;5034629;28;20275;-84
2021/10/31 05:38:14;;;;;;;2.72;1.98;;;7.70;99.90;;;;;;5024745;28;20206;-84
2021/10/31 05:40:39;;;;;;;22.85;3.00;;;7.70;99.90;;;;;;5028311;28;20209;-85
2021/10/31 05:43:05;;;;;;;1.73;1.63;;;7.70;99.90;;;;;;5033555;28;20201;-84
2021/10/31 05:45:31;;;;;;;1.52;1.42;;;7.70;99.90;;;;;;5033321;28;20730;-84
2021/10/31 05:47:57;;;;;;;1.65;1.55;;;7.60;99.90;;;;;;5027393;28;20230;-85
2021/10/31 05:50:22;;;;;;;1.65;1.55;;;7.60;99.90;;;;;;5022043;28;20205;-84
2021/10/31 05:52:48;;;;;;;3.67;2.70;;;7.60;99.90;;;;;;5045492;28;20281;-86
2021/10/31 05:55:16;;;;;;;1.77;1.38;;;7.60;99.90;;;;;;5034182;28;20339;-85
2021/10/31 05:57:43;;;;;;;1.63;1.52;;;7.60;99.90;;;;;;5034705;28;20197;-86
2021/10/31 06:00:11;;;;;;;1.23;1.20;;;7.60;99.90;;;;;;5034324;28;20304;-85
2021/10/31 06:02:37;;;;;;;2.28;2.08;;;7.60;99.90;;;;;;5033406;28;20264;-85
2021/10/31 06:05:04;;;;;;;2.47;2.28;;;7.60;99.90;;;;;;5033367;28;20251;-85
2021/10/31 06:07:31;;;;;;;2.15;1.60;;;7.60;99.90;;;;;;5028206;28;20781;-87
2021/10/31 06:09:57;;;;;;;1.55;1.40;;;7.60;99.90;;;;;;5037890;28;20245;-85
2021/10/31 06:12:23;;;;;;;4.63;2.42;;;7.70;99.90;;;;;;5032869;28;20226;-86
2021/10/31 06:14:49;;;;;;;1.15;1.13;;;7.70;99.90;;;;;;5016723;28;20707;-85
2021/10/31 06:17:15;;;;;;;1.35;1.25;;;7.60;99.90;;;;;;5034567;28;20213;-86
2021/10/31 06:19:41;;;;;;;1.58;1.48;;;7.60;99.90;;;;;;5017140;28;20209;-85
2021/10/31 06:22:07;;;;;;;0.90;0.90;;;7.60;99.90;;;;;;5017504;28;20229;-84
2021/10/31 06:24:33;;;;;;;2.08;1.73;;;7.60;99.90;;;;;;5011115;28;20213;-85
2021/10/31 06:26:59;;;;;;;1.25;1.15;;;7.60;99.90;;;;;;5022129;28;20198;-85
2021/10/31 06:29:25;;;;;;;3.13;2.10;;;7.60;99.90;;;;;;5051341;28;20207;-84
2021/10/31 06:31:50;;;;;;;2.35;2.20;;;7.60;99.90;;;;;;5034371;28;20209;-85
2021/10/31 06:34:16;;;;;;;1.65;1.55;;;7.60;99.90;;;;;;5017309;28;20206;-84
2021/10/31 06:36:43;;;;;;;1.27;1.17;;;7.60;99.90;;;;;;5032761;28;20247;-85
2021/10/31 06:39:09;;;;;;;1.17;1.08;;;7.60;99.90;;;;;;5011585;28;20206;-84
2021/10/31 06:41:35;;;;;;;0.82;0.82;;;7.60;99.90;;;;;;5030569;28;20259;-84
2021/10/31 06:44:00;;;;;;;0.75;0.75;;;7.60;99.90;;;;;;5018373;28;20680;-84
2021/10/31 06:46:26;;;;;;;1.58;1.48;;;7.60;99.90;;;;;;5029200;28;20282;-83
2021/10/31 06:48:52;;;;;;;3.20;1.92;;;7.60;99.90;;;;;;5020460;28;20248;-83
2021/10/31 06:51:19;;;;;;;1.98;1.55;;;7.70;99.90;;;;;;5029313;28;20541;-84
2021/10/31 06:53:45;;;;;;;2.08;1.02;;;7.70;99.90;;;;;;5032066;28;20206;-83
2021/10/31 06:56:11;;;;;;;0.63;0.63;;;7.80;99.90;;;;;;5045128;28;20209;-83
2021/10/31 06:58:37;;;;;;;1.63;1.42;;;7.80;99.90;;;;;;5041280;28;20676;-83
2021/10/31 07:01:03;;;;;;;0.57;0.57;;;7.90;99.90;;;;;;5027006;28;20202;-83
2021/10/31 07:03:29;;;;;;;1.08;1.02;;;7.90;99.90;;;;;;5031458;28;20228;-84
2021/10/31 07:05:55;;;;;;;3.40;1.92;;;8.00;99.90;;;;;;5031543;28;20549;-83
2021/10/31 07:08:21;;;;;;;1.90;1.70;;;8.00;99.90;;;;;;5019188;28;20225;-83
2021/10/31 07:10:47;;;;;;;5.68;2.80;;;8.10;99.90;;;;;;5021395;28;20201;-83
2021/10/31 07:13:13;;;;;;;1.27;1.08;;;8.10;99.90;;;;;;5027810;28;20209;-83
2021/10/31 07:15:38;;;;;;;1.05;0.98;;;8.10;99.90;;;;;;5031546;28;20197;-83
2021/10/31 07:18:04;;;;;;;2.22;1.75;;;8.20;99.90;;;;;;5032005;28;20220;-83
2021/10/31 07:20:31;;;;;;;12.88;2.17;;;8.20;99.90;;;;;;5030540;28;20263;-84
2021/10/31 07:22:57;;;;;;;4.55;1.70;;;8.30;99.90;;;;;;5030061;28;20320;-84
2021/10/31 07:25:24;;;;;;;2.47;1.92;;;8.30;99.90;;;;;;5011022;28;20301;-83
2021/10/31 07:27:52;;;;;;;1.77;1.52;;;8.30;99.90;;;;;;5033289;28;20201;-84
2021/10/31 07:30:19;;;;;;;0.90;0.90;;;8.40;99.90;;;;;;5016969;28;20209;-84
2021/10/31 07:32:51;;;;;;;2.42;2.03;;;8.40;99.90;;;;;;5015973;28;20297;-84
2021/10/31 07:35:17;;;;;;;1.20;1.17;;;8.40;99.90;;;;;;5018815;28;20209;-83
2021/10/31 07:37:43;;;;;;;0.55;0.55;;;8.40;99.90;;;;;;5019263;28;20208;-84
2021/10/31 07:40:09;;;;;;;1.42;1.23;;;8.50;99.90;;;;;;5010640;28;20245;-84
2021/10/31 07:42:37;;;;;;;1.02;1.02;;;8.50;99.90;;;;;;5015890;28;20653;-84
2021/10/31 07:45:04;;;;;;;0.65;0.65;;;8.50;99.90;;;;;;5019283;28;20278;-83
2021/10/31 07:47:29;;;;;;;1.52;1.42;;;8.60;99.90;;;;;;5022483;28;20201;-84
2021/10/31 07:49:55;;;;;;;0.75;0.75;;;8.60;99.90;;;;;;5027965;28;20299;-83
2021/10/31 07:52:22;;;;;;;0.93;0.90;;;8.60;99.90;;;;;;5024534;28;20209;-85
2021/10/31 07:54:49;;;;;;;1.23;1.15;;;8.60;99.90;;;;;;5014094;28;20221;-84
2021/10/31 07:57:18;;;;;;;0.55;0.55;;;8.60;99.90;;;;;;5042358;28;20269;-84
2021/10/31 07:59:44;;;;;;;1.98;1.00;;;8.60;99.90;;;;;;5050395;28;20549;-84
2021/10/31 08:02:09;;;;;;;0.60;0.60;;;8.60;99.90;;;;;;5028703;28;20197;-84
2021/10/31 08:04:36;;;;;;;1.30;1.00;;;8.70;99.90;;;;;;5049928;28;20205;-85
2021/10/31 08:07:02;;;;;;;1.15;1.10;;;8.70;99.90;;;;;;5049575;28;20566;-84
2021/10/31 08:09:28;;;;;;;1.85;1.55;;;8.80;99.90;;;;;;5038350;28;20535;-85
2021/10/31 08:11:53;;;;;;;1.25;1.15;;;8.80;99.90;;;;;;5012203;28;20233;-84
2021/10/31 08:14:19;;;;;;;2.85;0.88;;;8.90;99.90;;;;;;5034940;28;20209;-85
2021/10/31 08:16:45;;;;;;;0.47;0.47;;;8.90;99.90;;;;;;5035285;28;20197;-84
2021/10/31 08:19:10;;;;;;;1.92;1.75;;;8.90;99.90;;;;;;5053586;28;20197;-84
2021/10/31 08:21:38;;;;;;;1.10;0.90;;;9.10;99.90;;;;;;5034864;28;20201;-85
2021/10/31 08:24:05;;;;;;;2.45;1.40;;;9.20;99.90;;;;;;5027151;28;20209;-84
2021/10/31 08:26:31;;;;;;;1.85;1.15;;;9.40;99.90;;;;;;5034099;28;20259;-84
2021/10/31 08:28:59;;;;;;;2.70;1.23;;;9.60;99.90;;;;;;5034930;28;20201;-84
2021/10/31 08:31:27;;;;;;;1.33;1.23;;;9.80;99.90;;;;;;5033747;28;20692;-84
2021/10/31 08:33:58;;;;;;;1.58;1.13;;;9.90;99.90;;;;;;5034763;28;20213;-84
2021/10/31 08:36:28;;;;;;;2.05;0.98;;;10.00;99.90;;;;;;5034610;28;20258;-83
2021/10/31 08:38:55;;;;;;;0.77;0.70;;;9.90;99.90;;;;;;5030257;28;20197;-88
2021/10/31 08:41:23;;;;;;;0.70;0.70;;;9.80;99.90;;;;;;5030825;28;20680;-86
2021/10/31 08:43:50;;;;;;;1.42;1.15;;;9.90;99.90;;;;;;5035301;28;20645;-85
2021/10/31 08:46:16;;;;;;;0.50;0.50;;;9.90;99.90;;;;;;5028764;28;20205;-83
2021/10/31 08:48:43;;;;;;;0.40;0.40;;;10.10;99.90;;;;;;5033677;28;20210;-84
2021/10/31 08:51:09;;;;;;;0.88;0.88;;;10.10;99.90;;;;;;5034808;28;20579;-83
2021/10/31 08:53:37;;;;;;;0.38;0.38;;;9.90;99.90;;;;;;5034373;28;20201;-84
2021/10/31 08:56:04;;;;;;;0.82;0.57;;;9.90;99.90;;;;;;5034238;28;20204;-83
2021/10/31 08:58:43;;;;;;;1.27;1.17;;;10.00;99.90;;;;;;5034509;28;20255;-84
2021/10/31 09:01:12;;;;;;;0.73;0.73;;;10.00;99.90;;;;;;5052133;28;20204;-84
2021/10/31 09:03:39;;;;;;;1.30;1.20;;;10.00;99.90;;;;;;5034743;28;20177;-83
2021/10/31 09:31:38;;;;;;;0.47;0.47;;;11.10;99.90;;;;;;4176082;28;20715;-84
2021/10/31 09:34:29;;;;;;;;;;;;;;;;;;;;;
2021/10/31 09:37:01;;;;;;;1.00;0.82;;;11.10;99.90;;;;;;5050254;28;20657;-83
2021/10/31 09:39:26;;;;;;;0.68;0.68;;;10.90;99.90;;;;;;5034329;28;20208;-84
2021/10/31 09:41:59;;;;;;;1.08;0.85;;;10.80;99.90;;;;;;5033667;28;20657;-83
2021/10/31 09:44:38;;;;;;;0.60;0.55;;;10.70;99.90;;;;;;5033591;28;20211;-83
2021/10/31 09:47:07;;;;;;;0.30;0.30;;;10.60;99.90;;;;;;5033800;28;20664;-83
2021/10/31 09:49:35;;;;;;;0.40;0.40;;;10.60;99.90;;;;;;5051602;28;20275;-84
2021/10/31 09:52:21;;;;;;;;;;;;;;;;;;;;;
2021/10/31 09:55:00;;;;;;;0.38;0.38;;;11.10;99.90;;;;;;5051220;28;20502;-83
2021/10/31 09:57:36;;;;;;;0.20;0.20;;;11.50;99.90;;;;;;5015715;28;20622;-85
2021/10/31 10:00:15;;;;;;;0.43;0.43;;;11.80;99.90;;;;;;5017290;28;20653;-85
2021/10/31 10:05:28;;;;;;;0.30;0.30;;;12.30;99.90;;;;;;5051579;28;20632;-85
2021/10/31 10:08:14;;;;;;;0.75;0.60;;;12.40;99.90;;;;;;5035173;28;20219;-84
2021/10/31 10:11:13;;;;;;;0.20;0.20;;;12.50;99.90;;;;;;5051177;28;20668;-84
2021/10/31 10:13:41;;;;;;;0.47;0.47;;;12.10;99.90;;;;;;5050840;28;20275;-83
2021/10/31 10:16:22;;;;;;;0.30;0.30;;;11.90;99.90;;;;;;5033953;28;20288;-84
2021/10/31 10:18:48;;;;;;;0.20;0.20;;;11.60;99.90;;;;;;5033339;28;20205;-83
2021/10/31 10:21:22;;;;;;;0.30;0.30;;;11.30;99.90;;;;;;5051367;28;20202;-84
2021/10/31 10:23:51;;;;;;;1.20;1.10;;;11.20;99.90;;;;;;5033387;28;20205;-83
2021/10/31 10:26:34;;;;;;;0.40;0.40;;;11.10;99.90;;;;;;5034382;28;20210;-84
2021/10/31 10:29:13;;;;;;;0.57;0.57;;;11.20;99.90;;;;;;5033208;28;20292;-84
2021/10/31 10:31:44;;;;;;;0.55;0.50;;;11.40;99.90;;;;;;5032598;28;20229;-84
2021/10/31 10:34:12;;;;;;;0.28;0.28;;;11.60;99.90;;;;;;5033114;28;20216;-84
2021/10/31 10:36:43;;;;;;;9.77;1.10;;;11.90;99.90;;;;;;5032782;28;20680;-85
2021/10/31 10:39:19;;;;;;;0.30;0.30;;;12.20;99.90;;;;;;5046344;28;20209;-84
2021/10/31 10:41:53;;;;;;;0.65;0.60;;;12.40;99.90;;;;;;5039943;28;20257;-84
2021/10/31 10:44:27;;;;;;;0.50;0.50;;;12.60;99.90;;;;;;5051000;28;20574;-83
2021/10/31 10:47:00;;;;;;;0.30;0.30;;;12.50;99.90;;;;;;5032868;28;20201;-83
2021/10/31 10:49:27;;;;;;;0.20;0.20;;;12.40;99.90;;;;;;5033866;28;20259;-84
2021/10/31 10:52:07;;;;;;;0.40;0.40;;;12.40;99.90;;;;;;5032769;28;20229;-83
2021/10/31 10:54:37;;;;;;;0.28;0.28;;;12.50;99.90;;;;;;5052730;28;20217;-84
2021/10/31 10:57:05;;;;;;;0.25;0.25;;;12.60;99.90;;;;;;5036411;28;20201;-83
2021/10/31 10:59:33;;;;;;;0.45;0.45;;;12.80;99.90;;;;;;5036401;28;20566;-83
2021/10/31 11:02:13;;;;;;;2.60;0.43;;;12.80;99.90;;;;;;5036289;28;20197;-83
2021/10/31 11:04:41;;;;;;;1.15;0.90;;;12.80;99.90;;;;;;5037364;28;20213;-83
2021/10/31 11:07:08;;;;;;;0.20;0.20;;;12.70;99.90;;;;;;5036167;28;20205;-83
2021/10/31 11:09:44;;;;;;;0.50;0.50;;;12.40;99.90;;;;;;5028341;28;20202;-83
2021/10/31 11:12:37;;;;;;;0.20;0.20;;;12.50;99.90;;;;;;5054110;28;20729;-83
2021/10/31 11:15:10;;;;;;;6.00;0.75;;;12.60;99.90;;;;;;5032983;28;20261;-85
2021/10/31 11:17:37;;;;;;;0.90;0.43;;;12.70;99.90;;;;;;5036028;28;20201;-85
2021/10/31 11:20:04;;;;;;;0.65;0.40;;;12.70;99.90;;;;;;5035989;28;20559;-84
2021/10/31 11:22:31;;;;;;;0.25;0.25;;;12.90;99.90;;;;;;5035676;28;20197;-85
2021/10/31 11:24:59;;;;;;;0.15;0.15;;;13.00;99.90;;;;;;5054136;28;20628;-84
2021/10/31 11:27:27;;;;;;;0.50;0.50;;;13.20;99.90;;;;;;5037173;28;20221;-85
2021/10/31 11:29:55;;;;;;;0.30;0.30;;;13.30;99.90;;;;;;5036964;28;20567;-83
2021/10/31 11:32:23;;;;;;;0.20;0.20;;;13.40;99.90;;;;;;5023038;28;20234;-84
2021/10/31 11:34:51;;;;;;;0.50;0.50;;;13.10;99.90;;;;;;5014891;28;20206;-84
2021/10/31 11:37:21;;;;;;;1.48;1.38;;;12.60;99.90;;;;;;5014450;28;20582;-85
2021/10/31 11:39:52;;;;;;;0.20;0.20;;;12.40;99.90;;;;;;5016460;28;20244;-84
2021/10/31 11:42:19;;;;;;;0.20;0.20;;;12.40;99.90;;;;;;4999796;28;20203;-85
2021/10/31 11:45:07;;;;;;;0.20;0.20;;;12.60;99.90;;;;;;5020391;28;20205;-84
2021/10/31 11:47:34;;;;;;;0.30;0.30;;;12.70;99.90;;;;;;5025937;28;20274;-85
2021/10/31 11:50:04;;;;;;;0.20;0.20;;;12.70;99.90;;;;;;5039606;28;20194;-85
2021/10/31 11:52:58;;;;;;;0.20;0.20;;;12.80;99.90;;;;;;5039185;28;20233;-85
2021/10/31 11:55:30;;;;;;;0.30;0.30;;;12.80;99.90;;;;;;5035474;28;20241;-85
2021/10/31 11:58:07;;;;;;;0.80;0.63;;;12.80;99.90;;;;;;5057905;28;20206;-84
2021/10/31 12:00:33;;;;;;;1.38;0.95;;;12.50;99.90;;;;;;5055527;28;20202;-84
2021/10/31 12:03:03;;;;;;;0.20;0.20;;;12.30;99.90;;;;;;5032949;28;20209;-83
2021/10/31 12:05:37;;;;;;;0.25;0.25;;;12.20;99.90;;;;;;5023304;28;20220;-85
2021/10/31 12:08:05;;;;;;;0.20;0.20;;;12.10;99.90;;;;;;5034490;28;20292;-85
2021/10/31 12:10:31;;;;;;;0.20;0.20;;;12.30;99.90;;;;;;5034454;28;20233;-86
2021/10/31 12:13:23;;;;;;;0.20;0.20;;;12.30;99.90;;;;;;5057115;28;20266;-85
2021/10/31 12:16:04;;;;;;;0.20;0.20;;;12.30;99.90;;;;;;5030209;28;20229;-83
2021/10/31 12:18:51;;;;;;;0.20;0.20;;;12.00;99.90;;;;;;5023942;28;20577;-84
2021/10/31 12:21:33;;;;;;;0.30;0.30;;;11.90;99.90;;;;;;5021681;28;20202;-82
2021/10/31 12:24:10;;;;;;;5.78;1.70;;;11.80;99.90;;;;;;5029367;28;20186;-83
2021/10/31 12:26:39;;;;;;;0.20;0.20;;;11.70;99.90;;;;;;5034130;28;20205;-83
2021/10/31 12:29:14;;;;;;;0.20;0.20;;;11.70;99.90;;;;;;5021872;28;20202;-83
2021/10/31 12:31:53;;;;;;;0.20;0.20;;;11.80;99.90;;;;;;5032002;28;20698;-85
2021/10/31 12:34:21;;;;;;;0.32;0.32;;;11.80;99.90;;;;;;5050555;28;20213;-80
2021/10/31 12:36:49;;;;;;;0.20;0.20;;;11.80;99.90;;;;;;5059365;28;20224;-84
2021/10/31 12:39:44;;;;;;;3.70;1.67;;;12.00;99.90;;;;;;5048160;28;20197;-84
2021/10/31 12:42:24;;;;;;;0.77;0.77;;;12.10;99.90;;;;;;5039402;28;20701;-86
2021/10/31 12:44:55;;;;;;;0.20;0.20;;;12.00;99.90;;;;;;5045294;28;20229;-82
2021/10/31 12:47:25;;;;;;;1.33;0.73;;;11.70;99.90;;;;;;5049792;28;20228;-85
2021/10/31 12:50:09;;;;;;;0.25;0.25;;;11.60;99.90;;;;;;5071025;28;20201;-82
2021/10/31 12:52:34;;;;;;;0.28;0.28;;;11.50;99.90;;;;;;5054132;28;20212;-82
2021/10/31 12:55:04;;;;;;;0.28;0.28;;;11.30;99.90;;;;;;5039148;28;20209;-83
2021/10/31 12:57:30;;;;;;;0.20;0.20;;;11.30;99.90;;;;;;5051243;28;20201;-82
2021/10/31 13:00:03;;;;;;;0.20;0.20;;;11.20;99.90;;;;;;5049436;28;20630;-83
2021/10/31 13:02:30;;;;;;;0.40;0.40;;;11.10;99.90;;;;;;5022331;28;20302;-85
2021/10/31 13:05:09;;;;;;;0.35;0.35;;;11.00;99.90;;;;;;5037579;28;20209;-88
2021/10/31 13:07:38;;;;;;;10.15;2.05;;;11.00;99.90;;;;;;5038963;28;20274;-87
2021/10/31 13:10:07;;;;;;;1.20;1.05;;;10.90;99.90;;;;;;5054592;28;20193;-83
2021/10/31 13:12:32;;;;;;;0.20;0.20;;;10.90;99.90;;;;;;5035262;28;20225;-85
2021/10/31 13:15:04;;;;;;;0.22;0.22;;;10.90;99.90;;;;;;5036649;28;20600;-88
2021/10/31 13:17:35;;;;;;;8.25;1.48;;;10.80;99.90;;;;;;5053730;28;20220;-83
2021/10/31 13:20:28;;;;;;;0.20;0.20;;;10.80;99.90;;;;;;5036204;28;20223;-84
2021/10/31 13:23:19;;;;;;;0.30;0.30;;;10.70;99.90;;;;;;5022517;28;20237;-84
2021/10/31 13:25:52;;;;;;;0.20;0.20;;;10.70;99.90;;;;;;5030687;28;20241;-90
2021/10/31 13:28:34;;;;;;;0.20;0.20;;;10.70;99.90;;;;;;5033677;28;20292;-87
2021/10/31 13:31:08;;;;;;;0.20;0.20;;;10.60;99.90;;;;;;5036666;28;20205;-88
2021/10/31 13:33:45;;;;;;;0.20;0.20;;;10.60;99.90;;;;;;5035012;28;20209;-88
2021/10/31 13:36:20;;;;;;;0.57;0.57;;;10.60;99.90;;;;;;5036021;28;20201;-89
2021/10/31 13:38:57;;;;;;;0.20;0.20;;;10.40;99.90;;;;;;5053476;28;20209;-87